Mogadishu, Somalia
Current Conditions -  °F | °C
As of 12:55 PM on Sunday 25 Jan 2015 (Local Time) from KQVF Reporting Station
Clear Clear  
Wind Chill: 88°   Ceiling: Unl
Heat Index: 92°   Visibility: 6mi
Dew Point: 70°   Wind: 5mph
Humidity: 55%   Direction: NA
Pressure: 29.96"   Gusts: NA
Location:  2.05°N, 45.33°E
Report Text: KQVF 250955Z AUTO VRB04KT 9999 CLR 31/21 A2996 RMK AO2 SLP144 T03090209 $
Loading
Personal Weather Stations






























Interactive Weather Map New forecast layout! Learn more

10-Day Weather Forecast

Advertisements
Track Severe Weather on mobile